• vieta
  • image
  • image
  • image

Šiandien

Sekmadienis, 23 Lapkritis 2014

Orų prognozė

Šiauliai -1 °C
   

Orų prognozė aviacijai

[source: ADDS]
METAR
EYSA 231350Z 10006KT 080V140 0350 R14L/0550N FG VV002 M01/M01 Q1034 R14L/290195 R14R/290195 =
TAF
TAF EYSA 231400Z 2315/2324 VRB04KT 0300 FZFG VV001 TEMPO 2316/2321 1000 BR OVC003 =
SR / SS: 06:15 / 14:13 UTC (EYSA 2014-11-23)

Lankytojai

Mes turime 7 svečius online

tic logo lt